createdAt,value
2019-03-04T00:13:21.968Z,95199.82
2019-03-04T00:15:52.740Z,95192.88
2019-03-04T00:18:23.628Z,95195.14
2019-03-04T00:21:13.885Z,95191.09
2019-03-04T00:24:03.884Z,95193.30
2019-03-04T00:29:48.449Z,95187.88
2019-03-04T00:32:38.182Z,95183.27
2019-03-04T00:35:20.972Z,95170.50
2019-03-04T00:38:10.778Z,95177.34
2019-03-04T00:40:53.852Z,95177.37
2019-03-04T00:43:43.558Z,95178.58
2019-03-04T00:46:25.662Z,95173.88
2019-03-04T00:49:15.492Z,95166.91
2019-03-04T00:51:58.172Z,95171.42
2019-03-04T00:54:48.065Z,95167.56
2019-03-04T00:57:38.357Z,95173.73
2019-03-04T01:00:28.662Z,95167.93
2019-03-04T01:03:18.452Z,95164.62
2019-03-04T01:06:03.388Z,95153.36
2019-03-04T01:12:17.249Z,95156.39
2019-03-04T01:15:00.227Z,95150.02
2019-03-04T01:17:50.092Z,95147.46
2019-03-04T01:20:59.040Z,95140.18
2019-03-04T01:23:48.730Z,95136.91
2019-03-04T01:26:31.178Z,95128.41
2019-03-04T01:29:20.982Z,95118.53
2019-03-04T01:32:10.745Z,95118.73
2019-03-04T01:35:00.547Z,95090.31
2019-03-04T01:37:50.265Z,95105.35
2019-03-04T01:40:33.168Z,95100.16
2019-03-04T01:43:22.952Z,95089.29
2019-03-04T01:46:12.710Z,95080.53
2019-03-04T01:49:02.411Z,95074.00
2019-03-04T01:51:44.890Z,95062.81
2019-03-04T01:54:34.798Z,95058.23
2019-03-04T01:57:24.593Z,95073.62
2019-03-04T02:00:18.552Z,95070.61
2019-03-04T02:03:08.542Z,95066.22
2019-03-04T02:05:58.349Z,95062.91
2019-03-04T02:08:48.179Z,95025.66
2019-03-04T02:11:38.003Z,95029.03
2019-03-04T02:14:27.772Z,95024.62
2019-03-04T02:17:10.263Z,95013.67
2019-03-04T02:20:00.011Z,95007.86
2019-03-04T02:28:12.837Z,94966.47
2019-03-04T02:31:02.916Z,94974.65
2019-03-04T02:33:52.862Z,94973.95
2019-03-04T02:36:42.584Z,94942.42
2019-03-04T02:39:32.317Z,94955.56
2019-03-04T02:42:22.133Z,94967.39
2019-03-04T02:45:13.991Z,94976.31
2019-03-04T02:47:56.491Z,94974.66
2019-03-04T02:50:46.260Z,94975.12
2019-03-04T02:53:36.903Z,94975.57
2019-03-04T02:56:26.736Z,94967.86
2019-03-04T02:59:16.504Z,94960.08
2019-03-04T03:05:02.795Z,94925.23
2019-03-04T03:08:05.085Z,94937.70
2019-03-04T03:10:47.524Z,94922.38
2019-03-04T03:13:56.351Z,94937.35
2019-03-04T03:16:46.048Z,94901.39
2019-03-04T03:19:28.554Z,94888.30
2019-03-04T03:22:18.393Z,94895.97
2019-03-04T03:25:20.903Z,94889.33
2019-03-04T03:28:03.496Z,94890.60
2019-03-04T03:33:56.857Z,94863.24
2019-03-04T03:36:39.380Z,94864.78
2019-03-04T03:39:29.409Z,94876.62
2019-03-04T03:42:19.669Z,94849.70
2019-03-04T03:45:28.546Z,94868.31
2019-03-04T03:48:11.077Z,94864.32
2019-03-04T03:51:19.913Z,94845.05
2019-03-04T03:57:13.526Z,94838.86
2019-03-04T03:59:55.744Z,94838.41
2019-03-04T04:02:45.881Z,94824.23
2019-03-04T04:05:35.621Z,94802.27
2019-03-04T04:08:25.371Z,94806.05
2019-03-04T04:11:07.850Z,94775.05
2019-03-04T04:13:57.871Z,94780.00
2019-03-04T04:16:47.701Z,94776.30
2019-03-04T04:19:37.487Z,94762.48
2019-03-04T04:22:27.267Z,94764.47
2019-03-04T04:25:17.420Z,94753.31
2019-03-04T04:27:59.565Z,94744.77
2019-03-04T04:30:49.246Z,94741.61
2019-03-04T04:33:33.974Z,94732.63
2019-03-04T04:39:10.271Z,94704.30
2019-03-04T04:42:00.130Z,94720.04
2019-03-04T04:44:44.067Z,94684.95
2019-03-04T04:47:52.952Z,94694.26
2019-03-04T04:50:35.240Z,94666.09
2019-03-04T04:53:25.022Z,94694.26
2019-03-04T04:56:07.172Z,94669.09
2019-03-04T04:58:56.906Z,94672.97
2019-03-04T05:01:39.572Z,94673.09
2019-03-04T05:04:29.310Z,94655.14
2019-03-04T05:07:13.350Z,94649.21
2019-03-04T05:10:03.539Z,94632.26
2019-03-04T05:12:45.491Z,94636.54
2019-03-04T05:15:35.260Z,94634.95
2019-03-04T05:18:25.027Z,94620.40
2019-03-04T05:21:14.859Z,94590.16
2019-03-04T05:24:04.644Z,94600.27
2019-03-04T05:26:54.445Z,94598.73
2019-03-04T05:29:46.005Z,94592.13
2019-03-04T05:32:28.411Z,94586.75
2019-03-04T05:35:18.221Z,94578.25
2019-03-04T05:38:07.979Z,94578.80
2019-03-04T05:40:57.774Z,94582.63
2019-03-04T05:44:00.229Z,94578.56
2019-03-04T05:46:42.248Z,94576.50
2019-03-04T05:49:32.003Z,94570.84
2019-03-04T05:52:14.739Z,94562.85
2019-03-04T05:55:04.555Z,94553.97
2019-03-04T05:57:54.333Z,94556.51
2019-03-04T06:03:56.161Z,94523.55
2019-03-04T06:07:03.894Z,94550.67
2019-03-04T06:09:53.661Z,94550.02
2019-03-04T06:12:43.489Z,94537.59
2019-03-04T06:18:27.801Z,94536.92
2019-03-04T06:21:17.588Z,94538.31
2019-03-04T06:24:07.321Z,94578.90
2019-03-04T06:27:16.244Z,94569.86
2019-03-04T06:29:58.885Z,94551.52
2019-03-04T06:32:48.845Z,94562.98
2019-03-04T06:35:38.677Z,94557.84
2019-03-04T06:38:28.437Z,94520.38
2019-03-04T06:41:12.116Z,94551.34
2019-03-04T06:44:01.912Z,94542.74
2019-03-04T06:46:51.737Z,94534.55
2019-03-04T06:49:24.213Z,94521.17
2019-03-04T06:52:06.635Z,94505.02
2019-03-04T06:55:19.170Z,94499.95
2019-03-04T06:58:01.476Z,94500.16
2019-03-04T07:00:59.187Z,94486.94
2019-03-04T07:03:52.667Z,94497.49
2019-03-04T07:06:42.397Z,94504.54
2019-03-04T07:09:25.280Z,94522.67
2019-03-04T07:12:14.977Z,94537.09
2019-03-04T07:14:59.483Z,94582.20
2019-03-04T07:17:49.491Z,94600.30
2019-03-04T07:20:33.241Z,94594.01
2019-03-04T07:23:22.321Z,94618.37
2019-03-04T07:26:04.038Z,94630.95
2019-03-04T07:28:46.394Z,94643.96
2019-03-04T07:34:33.761Z,94635.27
2019-03-04T07:37:23.692Z,94645.30
2019-03-04T07:40:07.755Z,94620.52
2019-03-04T07:42:57.489Z,94617.89
2019-03-04T07:45:39.815Z,94645.41
2019-03-04T07:48:48.608Z,94647.62
2019-03-04T07:51:30.711Z,94677.28
2019-03-04T07:54:39.499Z,94661.93
2019-03-04T07:57:29.207Z,94667.89
2019-03-04T08:00:11.918Z,94681.02
2019-03-04T08:03:02.098Z,94684.76
2019-03-04T08:05:51.886Z,94675.61
2019-03-04T08:12:16.997Z,94655.27
2019-03-04T08:15:08.760Z,94651.19
2019-03-04T08:17:58.558Z,94631.17
2019-03-04T08:20:48.434Z,94667.78
2019-03-04T08:23:38.441Z,94691.67
2019-03-04T08:26:28.183Z,94701.02
2019-03-04T08:29:17.920Z,94702.84
2019-03-04T08:32:07.642Z,94689.02
2019-03-04T08:35:16.442Z,94704.68
2019-03-04T08:37:58.678Z,94718.08
2019-03-04T08:40:48.416Z,94706.09
2019-03-04T08:43:31.398Z,94724.82
2019-03-04T08:46:21.150Z,94710.47
2019-03-04T08:49:03.864Z,94722.50
2019-03-04T08:51:53.634Z,94730.03
2019-03-04T08:54:36.452Z,94743.56
2019-03-04T09:00:26.831Z,94770.26
2019-03-04T09:03:16.618Z,94732.87
2019-03-04T09:06:25.643Z,94796.25
2019-03-04T09:09:15.426Z,94814.48
2019-03-04T09:12:05.178Z,94828.50
2019-03-04T09:14:54.896Z,94851.09
2019-03-04T09:17:44.658Z,94799.41
2019-03-04T09:20:27.233Z,94822.80
2019-03-04T09:23:16.956Z,94853.51
2019-03-04T09:26:01.664Z,94856.38
2019-03-04T09:28:51.444Z,94855.73
2019-03-04T09:31:34.028Z,94862.80
2019-03-04T09:34:23.947Z,94857.16
2019-03-04T09:37:06.135Z,94871.09
2019-03-04T09:42:56.903Z,94889.97
2019-03-04T09:45:46.646Z,94911.37
2019-03-04T09:48:29.158Z,94932.09
2019-03-04T09:51:24.440Z,94926.00
2019-03-04T09:54:03.560Z,94935.92
2019-03-04T09:56:53.656Z,94942.11
2019-03-04T09:59:36.373Z,94959.56
2019-03-04T10:02:47.782Z,94950.06
2019-03-04T10:05:33.575Z,94949.55
2019-03-04T10:08:39.045Z,94998.45
2019-03-04T10:11:41.037Z,95016.06
2019-03-04T10:15:09.175Z,95016.19
2019-03-04T10:17:54.979Z,95007.83
2019-03-04T10:21:22.786Z,95008.67
2019-03-04T10:24:24.396Z,95000.80
2019-03-04T10:27:52.215Z,94992.61
2019-03-04T10:30:48.611Z,95030.91
2019-03-04T10:34:16.441Z,95055.70
2019-03-04T10:37:10.089Z,95019.77
2019-03-04T10:40:38.014Z,95034.50
2019-03-04T10:43:39.471Z,95048.22
2019-03-04T10:47:07.365Z,95011.88
2019-03-04T10:49:49.456Z,94991.77
2019-03-04T10:52:39.203Z,94999.84
2019-03-04T10:55:21.262Z,95003.91
2019-03-04T10:58:11.005Z,95004.29
2019-03-04T11:00:53.494Z,94981.64
2019-03-04T11:03:43.254Z,94979.17
2019-03-04T11:06:26.072Z,94960.95
2019-03-04T11:09:15.826Z,94980.69
2019-03-04T11:11:58.480Z,94958.08
2019-03-04T11:14:48.411Z,94931.58
2019-03-04T11:17:30.373Z,94925.20
2019-03-04T11:20:20.138Z,94921.15
2019-03-04T11:23:10.068Z,94933.13
2019-03-04T11:25:53.430Z,94908.92
2019-03-04T11:28:43.284Z,94913.73
2019-03-04T11:37:35.093Z,94911.78
2019-03-04T11:40:44.701Z,94879.50
2019-03-04T11:43:34.783Z,94896.84
2019-03-04T11:46:26.058Z,94906.52
2019-03-04T11:49:16.047Z,94926.01
2019-03-04T11:52:05.900Z,94928.10
2019-03-04T11:54:55.681Z,94933.57
2019-03-04T11:57:45.510Z,94956.50
2019-03-04T12:00:54.159Z,94957.05
2019-03-04T12:07:06.673Z,94943.81
2019-03-04T12:09:50.809Z,94957.93
2019-03-04T12:12:40.541Z,94948.80
2019-03-04T12:15:30.228Z,94926.38
2019-03-04T12:18:19.936Z,94930.74
2019-03-04T12:21:02.230Z,94929.55
2019-03-04T12:23:52.231Z,94940.59
2019-03-04T12:26:34.924Z,94936.48
2019-03-04T12:29:24.833Z,94922.97
2019-03-04T12:35:17.225Z,94942.95
2019-03-04T12:37:59.741Z,94946.05
2019-03-04T12:40:49.674Z,94942.99
2019-03-04T12:43:39.520Z,94931.31
2019-03-04T12:46:29.338Z,94951.02
2019-03-04T12:49:19.044Z,94945.16
2019-03-04T12:52:08.761Z,94943.65
2019-03-04T12:54:58.549Z,94938.10
2019-03-04T12:57:41.194Z,94950.52
2019-03-04T13:00:30.977Z,94924.41
2019-03-04T13:03:17.827Z,94918.84
2019-03-04T13:06:07.570Z,94935.33
2019-03-04T13:08:49.852Z,94933.24
2019-03-04T13:11:39.839Z,94923.54
2019-03-04T13:14:22.142Z,94912.89
2019-03-04T13:17:11.898Z,94894.41
2019-03-04T13:19:54.324Z,94907.53
2019-03-04T13:22:44.091Z,94907.88
2019-03-04T13:25:26.647Z,94901.41
2019-03-04T13:28:16.692Z,94904.40
2019-03-04T13:30:58.664Z,94893.03
2019-03-04T13:36:43.922Z,94912.50
2019-03-04T13:39:26.097Z,94896.41
2019-03-04T13:42:16.074Z,94900.06
2019-03-04T13:44:58.921Z,94901.04
2019-03-04T13:47:48.979Z,94886.98
2019-03-04T13:50:38.985Z,94904.09
2019-03-04T13:53:28.789Z,94893.03
2019-03-04T13:56:18.545Z,94906.94
2019-03-04T13:59:08.373Z,94925.50
2019-03-04T14:01:58.377Z,94901.36
2019-03-04T14:04:48.126Z,94901.34
2019-03-04T14:07:30.931Z,94908.33
2019-03-04T14:10:20.975Z,94905.83
2019-03-04T14:13:10.789Z,94897.53
2019-03-04T14:16:00.549Z,94902.90
2019-03-04T14:19:09.455Z,94898.62
2019-03-04T14:21:52.204Z,94896.56
2019-03-04T14:24:41.955Z,94878.24
2019-03-04T14:27:24.837Z,94892.47
2019-03-04T14:30:17.070Z,94895.05
2019-03-04T14:33:00.231Z,94897.34
2019-03-04T14:35:49.977Z,94906.19
2019-03-04T14:38:32.555Z,94890.41
2019-03-04T14:41:22.495Z,94913.34
2019-03-04T14:47:15.949Z,94912.42
2019-03-04T14:50:09.258Z,94916.16
2019-03-04T14:52:49.900Z,94916.23
2019-03-04T14:55:39.865Z,94905.64
2019-03-04T15:01:26.023Z,94922.86
2019-03-04T15:04:15.879Z,94936.12
2019-03-04T15:06:58.687Z,94974.66
2019-03-04T15:09:49.133Z,94954.78
2019-03-04T15:12:33.201Z,94951.36
2019-03-04T15:15:23.079Z,94935.81
2019-03-04T15:18:12.872Z,94950.50
2019-03-04T15:21:02.650Z,94908.95
2019-03-04T15:23:44.701Z,94901.27
2019-03-04T15:26:43.637Z,94893.96
2019-03-04T15:29:20.720Z,94874.94
2019-03-04T15:32:03.300Z,94878.37
2019-03-04T15:34:53.235Z,94851.83
2019-03-04T15:37:35.278Z,94851.56
2019-03-04T15:40:26.768Z,94849.32
2019-03-04T15:43:09.407Z,94858.34
2019-03-04T15:45:59.401Z,94835.73
2019-03-04T15:48:42.178Z,94845.59
2019-03-04T15:51:31.978Z,94837.89
2019-03-04T15:54:14.799Z,94833.23
2019-03-04T16:00:08.375Z,94874.66
2019-03-04T16:03:00.332Z,94887.81
2019-03-04T16:05:42.722Z,94889.08
2019-03-04T16:08:33.120Z,94909.89
2019-03-04T16:11:23.045Z,94887.67
2019-03-04T16:14:12.966Z,94901.81
2019-03-04T16:17:03.000Z,94868.09
2019-03-04T16:19:52.897Z,94882.83
2019-03-04T16:22:42.660Z,94888.45
2019-03-04T16:25:25.442Z,94873.41
2019-03-04T16:28:35.667Z,94910.17
2019-03-04T16:31:17.951Z,94918.52
2019-03-04T16:34:08.028Z,94910.58
2019-03-04T16:36:57.896Z,94943.30
2019-03-04T16:39:40.922Z,94949.73
2019-03-04T16:42:30.714Z,94946.66
2019-03-04T16:45:20.555Z,94968.78
2019-03-04T16:48:10.366Z,94957.95
2019-03-04T16:51:00.310Z,94950.65
2019-03-04T16:53:50.290Z,94941.73
2019-03-04T16:56:40.072Z,94924.02
2019-03-04T16:59:29.789Z,94970.78
2019-03-04T17:02:19.527Z,94965.82
2019-03-04T17:05:01.577Z,95000.23
2019-03-04T17:07:51.790Z,95004.70
2019-03-04T17:10:41.849Z,95015.14
2019-03-04T17:16:36.371Z,95027.91
2019-03-04T17:19:19.794Z,94994.85
2019-03-04T17:22:09.573Z,95026.13
2019-03-04T17:24:52.126Z,95017.38
2019-03-04T17:30:36.662Z,95026.88
2019-03-04T17:33:26.444Z,95022.65
2019-03-04T17:36:16.228Z,95011.06
2019-03-04T17:39:19.272Z,95039.23
2019-03-04T17:42:01.616Z,95049.91
2019-03-04T17:44:51.487Z,95031.56
2019-03-04T17:47:33.835Z,95063.84
2019-03-04T17:50:42.848Z,95065.94
2019-03-04T17:53:25.504Z,95056.86
2019-03-04T17:56:15.439Z,95102.08
2019-03-04T17:58:57.767Z,95106.92
2019-03-04T18:01:47.517Z,95110.42
2019-03-04T18:04:37.239Z,95120.69
2019-03-04T18:07:20.605Z,95133.27
2019-03-04T18:10:12.681Z,95143.72
2019-03-04T18:13:03.713Z,95155.34
2019-03-04T18:15:53.590Z,95158.84
2019-03-04T18:18:36.613Z,95171.46
2019-03-04T18:21:26.464Z,95184.98
2019-03-04T18:24:09.076Z,95201.64
2019-03-04T18:30:22.502Z,95201.80
2019-03-04T18:33:50.352Z,95202.62
2019-03-04T18:40:39.283Z,95209.60
2019-03-04T18:43:25.987Z,95171.66
2019-03-04T18:46:28.043Z,95200.48
2019-03-04T18:49:12.739Z,95205.33
2019-03-04T18:52:02.705Z,95189.67
2019-03-04T18:54:44.683Z,95190.41
2019-03-04T18:57:27.210Z,95171.26
2019-03-04T19:00:11.786Z,95207.88
2019-03-04T19:03:01.616Z,95211.38
2019-03-04T19:05:51.593Z,95222.23
2019-03-04T19:08:34.567Z,95222.05
2019-03-04T19:11:37.865Z,95210.66
2019-03-04T19:14:08.153Z,95242.22
2019-03-04T19:16:58.071Z,95245.71
2019-03-04T19:22:45.083Z,95257.53
2019-03-04T19:25:27.942Z,95267.80
2019-03-04T19:28:17.818Z,95244.00
2019-03-04T19:31:07.589Z,95237.03
2019-03-04T19:33:57.395Z,95226.00
2019-03-04T19:36:47.175Z,95235.11
2019-03-04T19:39:37.104Z,95238.39
2019-03-04T19:42:27.172Z,95230.47
2019-03-04T19:45:17.203Z,95228.16
2019-03-04T19:48:07.034Z,95201.05
2019-03-04T19:50:56.952Z,95220.19
2019-03-04T19:53:46.932Z,95204.16
2019-03-04T19:56:36.741Z,95207.05
2019-03-04T19:59:26.566Z,95222.14
2019-03-04T20:05:31.184Z,95241.11
2019-03-04T20:08:20.988Z,95241.49
2019-03-04T20:11:10.836Z,95253.91
2019-03-04T20:14:19.834Z,95254.28
2019-03-04T20:17:03.986Z,95249.83
2019-03-04T20:19:54.068Z,95261.24
2019-03-04T20:22:36.435Z,95263.77
2019-03-04T20:25:26.214Z,95244.78
2019-03-04T20:28:08.128Z,95270.14
2019-03-04T20:30:57.892Z,95278.67
2019-03-04T20:33:40.402Z,95279.25
2019-03-04T20:36:30.166Z,95293.98
2019-03-04T20:39:15.072Z,95284.47
2019-03-04T20:42:04.856Z,95288.34
2019-03-04T20:44:48.376Z,95299.58
2019-03-04T20:50:40.449Z,95323.59
2019-03-04T20:56:31.580Z,95451.27
2019-03-04T20:59:21.364Z,95478.97
2019-03-04T21:02:07.389Z,95455.37
2019-03-04T21:07:52.518Z,95463.28
2019-03-04T21:10:42.338Z,95447.04
2019-03-04T21:13:35.741Z,95466.08
2019-03-04T21:16:16.617Z,95486.08
2019-03-04T21:19:18.928Z,95478.52
2019-03-04T21:22:01.196Z,95468.55
2019-03-04T21:24:50.971Z,95476.55
2019-03-04T21:27:34.522Z,95474.58
2019-03-04T21:31:02.426Z,95452.53
2019-03-04T21:34:03.874Z,95474.89
2019-03-04T21:36:58.286Z,95472.72
2019-03-04T21:39:41.894Z,95459.55
2019-03-04T21:43:09.825Z,95465.13
2019-03-04T21:46:26.936Z,95485.93
2019-03-04T21:49:10.668Z,95506.94
2019-03-04T21:52:25.633Z,95519.45
2019-03-04T21:55:11.424Z,95524.63
2019-03-04T22:01:11.335Z,95553.52
2019-03-04T22:03:53.410Z,95564.45
2019-03-04T22:06:43.418Z,95565.20
2019-03-04T22:09:25.556Z,95559.53
2019-03-04T22:12:15.556Z,95561.31
2019-03-04T22:15:05.947Z,95576.20
2019-03-04T22:20:57.340Z,95564.48
2019-03-04T22:26:42.656Z,95559.28
2019-03-04T22:29:32.457Z,95572.91
2019-03-04T22:32:22.299Z,95550.37
2019-03-04T22:38:27.096Z,95513.14
2019-03-04T22:41:16.894Z,95508.34
2019-03-04T22:44:06.951Z,95510.88
2019-03-04T22:50:06.745Z,95514.08
2019-03-04T22:52:48.923Z,95511.58
2019-03-04T22:55:38.970Z,95532.48
2019-03-04T22:58:28.636Z,95526.19
2019-03-04T23:01:54.117Z,95531.69
2019-03-04T23:05:07.940Z,95538.50
2019-03-04T23:07:51.525Z,95538.50
2019-03-04T23:11:02.168Z,95517.69
2019-03-04T23:13:49.916Z,95538.56
2019-03-04T23:16:39.689Z,95508.08
2019-03-04T23:19:29.522Z,95539.06
2019-03-04T23:22:19.267Z,95541.91
2019-03-04T23:25:05.274Z,95517.84
2019-03-04T23:27:54.581Z,95529.73
2019-03-04T23:30:38.177Z,95496.25
2019-03-04T23:33:28.202Z,95507.92
2019-03-04T23:36:18.034Z,95526.89
2019-03-04T23:42:25.555Z,95523.11
2019-03-04T23:45:15.399Z,95514.80
2019-03-04T23:47:58.126Z,95506.30
2019-03-04T23:50:28.771Z,95482.95
2019-03-04T23:53:18.966Z,95500.03
2019-03-04T23:56:01.890Z,95501.22
2019-03-04T23:58:51.771Z,95494.70
